sensor_id;sensor_type;location;lat;lon;timestamp;pressure;altitude;pressure_sealevel;temperature;humidity
39613;BME280;25303;48.896;13.342;2023-04-25T00:00:07;92144.44;;;5.65;68.72
39613;BME280;25303;48.896;13.342;2023-04-25T00:02:53;92146.16;;;5.65;68.60
39613;BME280;25303;48.896;13.342;2023-04-25T00:05:37;92147.13;;;5.63;68.71
39613;BME280;25303;48.896;13.342;2023-04-25T00:08:22;92146.31;;;5.63;68.70
39613;BME280;25303;48.896;13.342;2023-04-25T00:11:05;92148.22;;;5.61;69.11
39613;BME280;25303;48.896;13.342;2023-04-25T00:13:48;92142.97;;;5.62;68.95
39613;BME280;25303;48.896;13.342;2023-04-25T00:16:31;92141.22;;;5.63;68.95
39613;BME280;25303;48.896;13.342;2023-04-25T00:19:16;92140.28;;;5.64;68.94
39613;BME280;25303;48.896;13.342;2023-04-25T00:21:59;92133.41;;;5.65;69.14
39613;BME280;25303;48.896;13.342;2023-04-25T00:24:43;92131.38;;;5.68;69.08
39613;BME280;25303;48.896;13.342;2023-04-25T00:27:26;92137.94;;;5.71;69.03
39613;BME280;25303;48.896;13.342;2023-04-25T00:30:10;92133.34;;;5.74;68.92
39613;BME280;25303;48.896;13.342;2023-04-25T00:32:53;92134.94;;;5.75;68.75
39613;BME280;25303;48.896;13.342;2023-04-25T00:35:37;92141.00;;;5.74;68.70
39613;BME280;25303;48.896;13.342;2023-04-25T00:38:20;92132.53;;;5.74;68.78
39613;BME280;25303;48.896;13.342;2023-04-25T00:41:07;92134.94;;;5.75;68.69
39613;BME280;25303;48.896;13.342;2023-04-25T00:43:50;92130.13;;;5.72;68.88
39613;BME280;25303;48.896;13.342;2023-04-25T00:46:35;92138.88;;;5.70;69.12
39613;BME280;25303;48.896;13.342;2023-04-25T00:49:18;92133.94;;;5.68;69.05
39613;BME280;25303;48.896;13.342;2023-04-25T00:52:01;92132.75;;;5.62;69.11
39613;BME280;25303;48.896;13.342;2023-04-25T00:54:44;92129.69;;;5.59;69.16
39613;BME280;25303;48.896;13.342;2023-04-25T00:57:28;92127.84;;;5.51;68.95
39613;BME280;25303;48.896;13.342;2023-04-25T01:00:11;92128.00;;;5.50;69.54
39613;BME280;25303;48.896;13.342;2023-04-25T01:02:55;92108.25;;;5.52;69.66
39613;BME280;25303;48.896;13.342;2023-04-25T01:05:39;92117.34;;;5.54;69.59
39613;BME280;25303;48.896;13.342;2023-04-25T01:08:24;92120.06;;;5.53;69.33
39613;BME280;25303;48.896;13.342;2023-04-25T01:11:07;92120.19;;;5.51;69.82
39613;BME280;25303;48.896;13.342;2023-04-25T01:13:52;92114.94;;;5.53;69.97
39613;BME280;25303;48.896;13.342;2023-04-25T01:16:34;92121.50;;;5.55;69.86
39613;BME280;25303;48.896;13.342;2023-04-25T01:19:19;92123.78;;;5.58;70.04
39613;BME280;25303;48.896;13.342;2023-04-25T01:22:04;92112.47;;;5.61;70.21
39613;BME280;25303;48.896;13.342;2023-04-25T01:24:47;92119.03;;;5.63;69.95
39613;BME280;25303;48.896;13.342;2023-04-25T01:27:30;92114.72;;;5.64;69.99
39613;BME280;25303;48.896;13.342;2023-04-25T01:30:15;92113.91;;;5.63;69.80
39613;BME280;25303;48.896;13.342;2023-04-25T01:32:58;92109.47;;;5.66;69.95
39613;BME280;25303;48.896;13.342;2023-04-25T01:35:43;92108.81;;;5.63;69.51
39613;BME280;25303;48.896;13.342;2023-04-25T01:38:27;92104.31;;;5.57;69.60
39613;BME280;25303;48.896;13.342;2023-04-25T01:41:10;92099.47;;;5.54;69.83
39613;BME280;25303;48.896;13.342;2023-04-25T01:43:53;92106.34;;;5.54;70.08
39613;BME280;25303;48.896;13.342;2023-04-25T01:46:37;92100.13;;;5.56;70.03
39613;BME280;25303;48.896;13.342;2023-04-25T01:49:20;92097.88;;;5.53;69.90
39613;BME280;25303;48.896;13.342;2023-04-25T01:52:03;92093.88;;;5.51;69.83
39613;BME280;25303;48.896;13.342;2023-04-25T01:54:48;92089.03;;;5.47;69.98
39613;BME280;25303;48.896;13.342;2023-04-25T01:57:32;92084.88;;;5.46;70.04
39613;BME280;25303;48.896;13.342;2023-04-25T02:00:15;92090.00;;;5.46;70.40
39613;BME280;25303;48.896;13.342;2023-04-25T02:02:58;92084.88;;;5.46;70.45
39613;BME280;25303;48.896;13.342;2023-04-25T02:05:45;92091.59;;;5.47;70.58
39613;BME280;25303;48.896;13.342;2023-04-25T02:08:28;92097.44;;;5.40;70.91
39613;BME280;25303;48.896;13.342;2023-04-25T02:11:13;92088.22;;;5.47;70.82
39613;BME280;25303;48.896;13.342;2023-04-25T02:14:02;92089.44;;;5.53;70.63
39613;BME280;25303;48.896;13.342;2023-04-25T02:16:52;92080.66;;;5.55;70.64
39613;BME280;25303;48.896;13.342;2023-04-25T02:19:35;92078.09;;;5.55;70.33
39613;BME280;25303;48.896;13.342;2023-04-25T02:22:18;92085.59;;;5.57;70.62
39613;BME280;25303;48.896;13.342;2023-04-25T02:25:01;92087.22;;;5.58;70.57
39613;BME280;25303;48.896;13.342;2023-04-25T02:27:48;92081.97;;;5.59;70.32
39613;BME280;25303;48.896;13.342;2023-04-25T02:30:31;92087.75;;;5.61;70.21
39613;BME280;25303;48.896;13.342;2023-04-25T02:33:14;92085.81;;;5.63;70.14
39613;BME280;25303;48.896;13.342;2023-04-25T02:35:58;92088.38;;;5.63;70.37
39613;BME280;25303;48.896;13.342;2023-04-25T02:38:41;92095.69;;;5.58;70.32
39613;BME280;25303;48.896;13.342;2023-04-25T02:41:24;92097.31;;;5.59;70.17
39613;BME280;25303;48.896;13.342;2023-04-25T02:44:09;92085.31;;;5.60;70.54
39613;BME280;25303;48.896;13.342;2023-04-25T02:46:52;92081.81;;;5.61;70.31
39613;BME280;25303;48.896;13.342;2023-04-25T02:49:37;92078.47;;;5.60;70.46
39613;BME280;25303;48.896;13.342;2023-04-25T02:52:21;92080.09;;;5.61;70.45
39613;BME280;25303;48.896;13.342;2023-04-25T02:55:12;92085.31;;;5.60;70.37
39613;BME280;25303;48.896;13.342;2023-04-25T02:57:56;92075.41;;;5.57;70.37
39613;BME280;25303;48.896;13.342;2023-04-25T03:00:54;92073.78;;;5.56;70.40
39613;BME280;25303;48.896;13.342;2023-04-25T03:03:38;92075.06;;;5.52;70.45
39613;BME280;25303;48.896;13.342;2023-04-25T03:06:21;92070.59;;;5.54;70.49
39613;BME280;25303;48.896;13.342;2023-04-25T03:09:04;92066.28;;;5.54;70.47
39613;BME280;25303;48.896;13.342;2023-04-25T03:11:48;92070.44;;;5.55;70.71
39613;BME280;25303;48.896;13.342;2023-04-25T03:14:32;92066.13;;;5.56;70.61
39613;BME280;25303;48.896;13.342;2023-04-25T03:17:16;92064.69;;;5.53;70.96
39613;BME280;25303;48.896;13.342;2023-04-25T03:19:59;92058.91;;;5.33;71.42
39613;BME280;25303;48.896;13.342;2023-04-25T03:22:43;92058.78;;;5.53;70.90
39613;BME280;25303;48.896;13.342;2023-04-25T03:25:26;92063.75;;;5.54;70.80
39613;BME280;25303;48.896;13.342;2023-04-25T03:28:09;92057.19;;;5.52;70.77
39613;BME280;25303;48.896;13.342;2023-04-25T03:30:52;92055.41;;;5.52;70.81
39613;BME280;25303;48.896;13.342;2023-04-25T03:33:37;92055.28;;;5.54;70.79
39613;BME280;25303;48.896;13.342;2023-04-25T03:36:19;92050.03;;;5.55;70.76
39613;BME280;25303;48.896;13.342;2023-04-25T03:39:02;92050.03;;;5.55;70.87
39613;BME280;25303;48.896;13.342;2023-04-25T03:41:46;92046.53;;;5.56;71.12
39613;BME280;25303;48.896;13.342;2023-04-25T03:44:30;92043.47;;;5.53;71.17
39613;BME280;25303;48.896;13.342;2023-04-25T03:47:15;92047.91;;;5.51;70.92
39613;BME280;25303;48.896;13.342;2023-04-25T03:49:59;92043.81;;;5.40;70.97
39613;BME280;25303;48.896;13.342;2023-04-25T03:52:44;92045.28;;;5.24;70.93
39613;BME280;25303;48.896;13.342;2023-04-25T03:55:27;92044.38;;;5.15;71.33
39613;BME280;25303;48.896;13.342;2023-04-25T03:58:10;92052.03;;;5.15;71.61
39613;BME280;25303;48.896;13.342;2023-04-25T04:00:53;92052.56;;;5.19;71.49
39613;BME280;25303;48.896;13.342;2023-04-25T04:03:36;92047.81;;;5.24;71.58
39613;BME280;25303;48.896;13.342;2023-04-25T04:06:22;92060.16;;;5.29;71.50
39613;BME280;25303;48.896;13.342;2023-04-25T04:09:11;92052.06;;;5.33;71.66
39613;BME280;25303;48.896;13.342;2023-04-25T04:11:57;92046.66;;;5.37;71.75
39613;BME280;25303;48.896;13.342;2023-04-25T04:14:40;92049.06;;;5.38;71.81
39613;BME280;25303;48.896;13.342;2023-04-25T04:17:23;92050.66;;;5.39;71.78
39613;BME280;25303;48.896;13.342;2023-04-25T04:20:08;92054.03;;;5.40;71.96
39613;BME280;25303;48.896;13.342;2023-04-25T04:22:54;92051.31;;;5.41;71.76
39613;BME280;25303;48.896;13.342;2023-04-25T04:25:38;92051.97;;;5.43;71.90
39613;BME280;25303;48.896;13.342;2023-04-25T04:28:35;92059.66;;;5.43;71.77
39613;BME280;25303;48.896;13.342;2023-04-25T04:31:27;92059.13;;;5.40;71.88
39613;BME280;25303;48.896;13.342;2023-04-25T04:34:11;92057.03;;;5.35;72.08
39613;BME280;25303;48.896;13.342;2023-04-25T04:36:55;92054.75;;;5.32;71.83
39613;BME280;25303;48.896;13.342;2023-04-25T04:39:39;92052.66;;;5.27;71.94
39613;BME280;25303;48.896;13.342;2023-04-25T04:42:36;92056.94;;;5.27;71.98
39613;BME280;25303;48.896;13.342;2023-04-25T04:45:30;92057.75;;;5.27;71.96
39613;BME280;25303;48.896;13.342;2023-04-25T04:48:32;92045.78;;;5.28;72.11
39613;BME280;25303;48.896;13.342;2023-04-25T04:51:38;92049.78;;;5.30;72.09
39613;BME280;25303;48.896;13.342;2023-04-25T04:54:46;92060.38;;;5.36;72.08
39613;BME280;25303;48.896;13.342;2023-04-25T04:58:01;92057.69;;;5.37;72.18
39613;BME280;25303;48.896;13.342;2023-04-25T05:00:55;92052.44;;;5.39;72.40
39613;BME280;25303;48.896;13.342;2023-04-25T05:04:08;92052.81;;;5.44;72.72
39613;BME280;25303;48.896;13.342;2023-04-25T05:07:02;92046.44;;;5.48;72.59
39613;BME280;25303;48.896;13.342;2023-04-25T05:10:07;92051.91;;;5.53;72.54
39613;BME280;25303;48.896;13.342;2023-04-25T05:13:10;92052.28;;;5.58;72.64
39613;BME280;25303;48.896;13.342;2023-04-25T05:16:12;92059.00;;;5.59;72.97
39613;BME280;25303;48.896;13.342;2023-04-25T05:19:03;92050.41;;;5.60;72.86
39613;BME280;25303;48.896;13.342;2023-04-25T05:21:57;92058.19;;;5.59;72.96
39613;BME280;25303;48.896;13.342;2023-04-25T05:24:51;92057.03;;;5.53;73.45
39613;BME280;25303;48.896;13.342;2023-04-25T05:27:50;92048.41;;;5.54;73.02
39613;BME280;25303;48.896;13.342;2023-04-25T05:31:04;92049.88;;;5.57;72.91
39613;BME280;25303;48.896;13.342;2023-04-25T05:34:03;92043.25;;;5.64;73.05
39613;BME280;25303;48.896;13.342;2023-04-25T05:37:24;92049.34;;;5.71;73.33
39613;BME280;25303;48.896;13.342;2023-04-25T05:40:18;92052.28;;;5.76;73.18
39613;BME280;25303;48.896;13.342;2023-04-25T05:43:15;92057.09;;;5.80;73.17
39613;BME280;25303;48.896;13.342;2023-04-25T05:46:08;92050.75;;;5.84;72.91
39613;BME280;25303;48.896;13.342;2023-04-25T05:49:06;92047.72;;;5.88;73.11
39613;BME280;25303;48.896;13.342;2023-04-25T05:52:14;92046.63;;;5.91;73.02
39613;BME280;25303;48.896;13.342;2023-04-25T05:55:02;92045.69;;;5.92;72.75
39613;BME280;25303;48.896;13.342;2023-04-25T05:57:46;92044.72;;;5.93;72.91
39613;BME280;25303;48.896;13.342;2023-04-25T06:00:33;92046.34;;;5.94;72.66
39613;BME280;25303;48.896;13.342;2023-04-25T06:03:16;92050.50;;;5.95;72.75
39613;BME280;25303;48.896;13.342;2023-04-25T06:06:02;92050.06;;;6.00;72.70
39613;BME280;25303;48.896;13.342;2023-04-25T06:08:47;92043.56;;;6.05;72.74
39613;BME280;25303;48.896;13.342;2023-04-25T06:11:30;92043.63;;;6.14;72.82
39613;BME280;25303;48.896;13.342;2023-04-25T06:14:14;92045.59;;;6.20;73.01
39613;BME280;25303;48.896;13.342;2023-04-25T06:17:03;92043.53;;;6.23;72.78
39613;BME280;25303;48.896;13.342;2023-04-25T06:19:50;92036.22;;;6.29;72.75
39613;BME280;25303;48.896;13.342;2023-04-25T06:22:33;92040.06;;;6.33;72.68
39613;BME280;25303;48.896;13.342;2023-04-25T06:25:16;92031.81;;;6.39;72.72
39613;BME280;25303;48.896;13.342;2023-04-25T06:27:59;92030.38;;;6.45;72.60
39613;BME280;25303;48.896;13.342;2023-04-25T06:30:42;92024.16;;;6.47;72.74
39613;BME280;25303;48.896;13.342;2023-04-25T06:33:30;92024.22;;;6.56;72.66
39613;BME280;25303;48.896;13.342;2023-04-25T06:36:13;92016.56;;;6.64;72.65
39613;BME280;25303;48.896;13.342;2023-04-25T06:38:58;92017.72;;;6.69;72.98
39613;BME280;25303;48.896;13.342;2023-04-25T06:41:40;92016.78;;;6.79;72.77
39613;BME280;25303;48.896;13.342;2023-04-25T06:44:43;92015.84;;;6.88;72.70
39613;BME280;25303;48.896;13.342;2023-04-25T06:47:28;92011.72;;;6.95;72.41
39613;BME280;25303;48.896;13.342;2023-04-25T06:50:15;92011.44;;;7.07;72.73
39613;BME280;25303;48.896;13.342;2023-04-25T06:52:58;92010.81;;;7.21;72.55
39613;BME280;25303;48.896;13.342;2023-04-25T06:55:44;92014.69;;;7.34;72.69
39613;BME280;25303;48.896;13.342;2023-04-25T06:58:35;92011.97;;;7.35;72.25
39613;BME280;25303;48.896;13.342;2023-04-25T07:01:38;92006.84;;;7.35;71.90
39613;BME280;25303;48.896;13.342;2023-04-25T07:04:29;92013.25;;;7.31;71.82
39613;BME280;25303;48.896;13.342;2023-04-25T07:07:15;92008.44;;;7.20;71.34
39613;BME280;25303;48.896;13.342;2023-04-25T07:10:07;92013.19;;;7.06;71.39
39613;BME280;25303;48.896;13.342;2023-04-25T07:12:51;92016.06;;;6.95;71.16
39613;BME280;25303;48.896;13.342;2023-04-25T07:15:34;92020.97;;;6.88;71.17
39613;BME280;25303;48.896;13.342;2023-04-25T07:18:17;92017.94;;;6.84;72.07
39613;BME280;25303;48.896;13.342;2023-04-25T07:21:01;92010.44;;;6.91;72.01
39613;BME280;25303;48.896;13.342;2023-04-25T07:23:47;92010.94;;;6.95;72.06
39613;BME280;25303;48.896;13.342;2023-04-25T07:26:34;92009.00;;;6.97;71.92
39613;BME280;25303;48.896;13.342;2023-04-25T07:29:34;92013.03;;;6.99;71.86
39613;BME280;25303;48.896;13.342;2023-04-25T07:32:19;92007.25;;;7.06;71.94
39613;BME280;25303;48.896;13.342;2023-04-25T07:35:02;92003.63;;;7.17;72.26
39613;BME280;25303;48.896;13.342;2023-04-25T07:37:45;91999.97;;;7.27;71.51
39613;BME280;25303;48.896;13.342;2023-04-25T07:40:34;92003.50;;;7.35;70.82
39613;BME280;25303;48.896;13.342;2023-04-25T07:43:20;91998.84;;;7.38;70.63
39613;BME280;25303;48.896;13.342;2023-04-25T07:46:11;91995.19;;;7.49;71.07
39613;BME280;25303;48.896;13.342;2023-04-25T07:48:54;92006.53;;;7.63;71.51
39613;BME280;25303;48.896;13.342;2023-04-25T07:51:37;91993.25;;;7.76;71.47
39613;BME280;25303;48.896;13.342;2023-04-25T07:54:24;91987.97;;;7.94;71.09
39613;BME280;25303;48.896;13.342;2023-04-25T08:01:29;91991.94;;;8.05;69.51
39613;BME280;25303;48.896;13.342;2023-04-25T08:04:16;91995.97;;;8.08;68.80
39613;BME280;25303;48.896;13.342;2023-04-25T08:07:07;92000.28;;;8.07;68.60
39613;BME280;25303;48.896;13.342;2023-04-25T08:10:03;91996.59;;;8.01;67.54
39613;BME280;25303;48.896;13.342;2023-04-25T08:12:47;91997.72;;;8.07;67.55
39613;BME280;25303;48.896;13.342;2023-04-25T08:15:30;92001.53;;;8.19;67.78
39613;BME280;25303;48.896;13.342;2023-04-25T08:18:15;91997.69;;;8.32;67.68
39613;BME280;25303;48.896;13.342;2023-04-25T08:21:00;91996.69;;;8.41;66.50
39613;BME280;25303;48.896;13.342;2023-04-25T08:23:43;91998.31;;;8.34;65.34
39613;BME280;25303;48.896;13.342;2023-04-25T08:26:29;92003.28;;;8.44;65.68
39613;BME280;25303;48.896;13.342;2023-04-25T08:29:13;92002.13;;;8.55;65.53
39613;BME280;25303;48.896;13.342;2023-04-25T08:31:57;91999.91;;;8.51;65.02
39613;BME280;25303;48.896;13.342;2023-04-25T08:34:41;92000.69;;;8.52;65.43
39613;BME280;25303;48.896;13.342;2023-04-25T08:37:25;92005.81;;;8.52;65.89
39613;BME280;25303;48.896;13.342;2023-04-25T08:40:14;91998.31;;;8.50;65.70
39613;BME280;25303;48.896;13.342;2023-04-25T08:43:01;92009.16;;;8.61;66.18
39613;BME280;25303;48.896;13.342;2023-04-25T08:45:46;92012.00;;;8.74;66.57
39613;BME280;25303;48.896;13.342;2023-04-25T08:48:42;92021.56;;;8.97;65.93
39613;BME280;25303;48.896;13.342;2023-04-25T08:51:31;92011.31;;;9.20;66.29
39613;BME280;25303;48.896;13.342;2023-04-25T08:54:16;92008.00;;;9.43;66.12
39613;BME280;25303;48.896;13.342;2023-04-25T08:57:19;92012.22;;;9.59;63.43
39613;BME280;25303;48.896;13.342;2023-04-25T09:00:05;92007.63;;;9.69;63.49
39613;BME280;25303;48.896;13.342;2023-04-25T09:02:52;92014.22;;;9.72;62.80
39613;BME280;25303;48.896;13.342;2023-04-25T09:05:36;92012.75;;;9.69;63.03
39613;BME280;25303;48.896;13.342;2023-04-25T09:08:21;92014.56;;;9.69;62.84
39613;BME280;25303;48.896;13.342;2023-04-25T09:11:04;92011.34;;;9.67;62.94
39613;BME280;25303;48.896;13.342;2023-04-25T09:13:47;92002.47;;;9.69;63.17
39613;BME280;25303;48.896;13.342;2023-04-25T09:16:57;92002.03;;;9.89;63.26
39613;BME280;25303;48.896;13.342;2023-04-25T09:19:50;92002.78;;;10.13;62.29
39613;BME280;25303;48.896;13.342;2023-04-25T09:22:45;92001.91;;;10.36;60.87
39613;BME280;25303;48.896;13.342;2023-04-25T09:25:34;91998.88;;;10.40;60.25
39613;BME280;25303;48.896;13.342;2023-04-25T09:28:23;92004.94;;;10.24;60.11
39613;BME280;25303;48.896;13.342;2023-04-25T09:31:09;92012.22;;;10.36;61.29
39613;BME280;25303;48.896;13.342;2023-04-25T09:33:59;92004.59;;;10.27;59.67
39613;BME280;25303;48.896;13.342;2023-04-25T09:36:54;92015.56;;;10.06;59.02
39613;BME280;25303;48.896;13.342;2023-04-25T09:40:05;92012.31;;;9.89;59.29
39613;BME280;25303;48.896;13.342;2023-04-25T09:43:08;92025.06;;;9.82;59.72
39613;BME280;25303;48.896;13.342;2023-04-25T09:45:53;92019.63;;;9.77;59.69
39613;BME280;25303;48.896;13.342;2023-04-25T09:48:48;92032.84;;;9.74;59.37
39613;BME280;25303;48.896;13.342;2023-04-25T09:51:35;92040.91;;;9.63;59.79
39613;BME280;25303;48.896;13.342;2023-04-25T09:54:21;92047.66;;;9.64;59.73
39613;BME280;25303;48.896;13.342;2023-04-25T09:57:11;92049.66;;;9.53;59.64
39613;BME280;25303;48.896;13.342;2023-04-25T09:59:56;92060.69;;;9.31;59.76
39613;BME280;25303;48.896;13.342;2023-04-25T10:02:46;92056.47;;;9.15;60.94
39613;BME280;25303;48.896;13.342;2023-04-25T10:06:08;92060.91;;;8.81;61.17
39613;BME280;25303;48.896;13.342;2023-04-25T10:08:52;92065.13;;;8.65;62.04
39613;BME280;25303;48.896;13.342;2023-04-25T10:11:38;92063.72;;;8.30;61.98
39613;BME280;25303;48.896;13.342;2023-04-25T10:14:21;92073.19;;;8.21;63.37
39613;BME280;25303;48.896;13.342;2023-04-25T10:17:07;92080.53;;;8.16;62.86
39613;BME280;25303;48.896;13.342;2023-04-25T10:19:52;92074.78;;;8.14;63.19
39613;BME280;25303;48.896;13.342;2023-04-25T10:22:38;92075.91;;;8.11;63.58
39613;BME280;25303;48.896;13.342;2023-04-25T10:25:23;92082.47;;;8.05;63.96
39613;BME280;25303;48.896;13.342;2023-04-25T10:28:06;92076.38;;;7.98;64.04
39613;BME280;25303;48.896;13.342;2023-04-25T10:30:58;92088.41;;;7.98;64.52
39613;BME280;25303;48.896;13.342;2023-04-25T10:33:43;92086.47;;;7.91;64.39
39613;BME280;25303;48.896;13.342;2023-04-25T10:36:31;92084.88;;;7.99;64.88
39613;BME280;25303;48.896;13.342;2023-04-25T10:39:21;92085.84;;;8.06;65.15
39613;BME280;25303;48.896;13.342;2023-04-25T10:42:05;92078.94;;;8.15;65.43
39613;BME280;25303;48.896;13.342;2023-04-25T10:45:01;92073.19;;;8.21;65.78
39613;BME280;25303;48.896;13.342;2023-04-25T10:47:45;92071.41;;;8.30;65.66
39613;BME280;25303;48.896;13.342;2023-04-25T10:50:38;92067.56;;;8.34;65.22
39613;BME280;25303;48.896;13.342;2023-04-25T10:53:24;92063.69;;;8.38;65.27
39613;BME280;25303;48.896;13.342;2023-04-25T10:56:11;92059.53;;;8.45;65.35
39613;BME280;25303;48.896;13.342;2023-04-25T10:59:05;92064.50;;;8.55;65.65
39613;BME280;25303;48.896;13.342;2023-04-25T11:01:52;92065.25;;;8.72;65.71
39613;BME280;25303;48.896;13.342;2023-04-25T11:04:36;92058.13;;;8.99;66.08
39613;BME280;25303;48.896;13.342;2023-04-25T11:07:33;92060.53;;;9.32;66.04
39613;BME280;25303;48.896;13.342;2023-04-25T11:10:17;92052.97;;;9.39;64.56
39613;BME280;25303;48.896;13.342;2023-04-25T11:13:00;92059.22;;;9.36;64.34
39613;BME280;25303;48.896;13.342;2023-04-25T11:15:43;92067.09;;;9.35;64.70
39613;BME280;25303;48.896;13.342;2023-04-25T11:18:29;92061.09;;;9.19;63.92
39613;BME280;25303;48.896;13.342;2023-04-25T11:21:14;92059.53;;;9.10;64.78
39613;BME280;25303;48.896;13.342;2023-04-25T11:23:59;92053.44;;;9.03;64.90
39613;BME280;25303;48.896;13.342;2023-04-25T11:26:42;92046.06;;;9.00;65.11
39613;BME280;25303;48.896;13.342;2023-04-25T11:29:26;92045.75;;;9.03;65.39
39613;BME280;25303;48.896;13.342;2023-04-25T11:32:09;92046.22;;;9.06;65.84
39613;BME280;25303;48.896;13.342;2023-04-25T11:34:52;92044.72;;;9.12;65.78
39613;BME280;25303;48.896;13.342;2023-04-25T11:37:35;92044.25;;;9.17;66.01
39613;BME280;25303;48.896;13.342;2023-04-25T11:40:20;92052.22;;;9.22;65.73
39613;BME280;25303;48.896;13.342;2023-04-25T11:43:03;92055.75;;;9.21;65.33
39613;BME280;25303;48.896;13.342;2023-04-25T11:45:48;92058.84;;;9.16;65.69
39613;BME280;25303;48.896;13.342;2023-04-25T11:48:37;92067.38;;;9.08;65.37
39613;BME280;25303;48.896;13.342;2023-04-25T11:51:20;92074.63;;;8.96;65.46
39613;BME280;25303;48.896;13.342;2023-04-25T11:54:03;92085.78;;;8.80;65.77
39613;BME280;25303;48.896;13.342;2023-04-25T11:56:48;92075.69;;;8.62;65.93
39613;BME280;25303;48.896;13.342;2023-04-25T11:59:31;92081.81;;;8.53;66.12
39613;BME280;25303;48.896;13.342;2023-04-25T12:02:24;92073.81;;;8.40;66.75
39613;BME280;25303;48.896;13.342;2023-04-25T12:05:09;92082.31;;;8.32;66.55
39613;BME280;25303;48.896;13.342;2023-04-25T12:08:12;92084.06;;;8.23;66.69
39613;BME280;25303;48.896;13.342;2023-04-25T12:10:56;92088.41;;;8.23;68.69
39613;BME280;25303;48.896;13.342;2023-04-25T12:13:43;92090.13;;;8.63;70.33
39613;BME280;25303;48.896;13.342;2023-04-25T12:16:27;92081.94;;;9.16;70.85
39613;BME280;25303;48.896;13.342;2023-04-25T12:19:13;92075.50;;;9.52;69.66
39613;BME280;25303;48.896;13.342;2023-04-25T12:21:56;92074.59;;;9.99;69.25
39613;BME280;25303;48.896;13.342;2023-04-25T12:24:40;92061.84;;;10.44;68.76
39613;BME280;25303;48.896;13.342;2023-04-25T12:27:25;92066.16;;;10.67;67.38
39613;BME280;25303;48.896;13.342;2023-04-25T12:30:10;92062.16;;;10.79;67.62
39613;BME280;25303;48.896;13.342;2023-04-25T12:32:53;92058.41;;;11.12;68.03
39613;BME280;25303;48.896;13.342;2023-04-25T12:35:36;92057.94;;;11.38;65.57
39613;BME280;25303;48.896;13.342;2023-04-25T12:38:27;92054.03;;;11.64;65.07
39613;BME280;25303;48.896;13.342;2023-04-25T12:41:11;92059.47;;;11.91;64.44
39613;BME280;25303;48.896;13.342;2023-04-25T12:43:54;92055.91;;;12.14;63.35
39613;BME280;25303;48.896;13.342;2023-04-25T12:46:40;92049.59;;;12.45;62.92
39613;BME280;25303;48.896;13.342;2023-04-25T12:49:23;92048.13;;;12.57;61.95
39613;BME280;25303;48.896;13.342;2023-04-25T12:52:07;92051.19;;;12.74;62.74
39613;BME280;25303;48.896;13.342;2023-04-25T12:54:50;92052.31;;;13.00;62.67
39613;BME280;25303;48.896;13.342;2023-04-25T12:57:33;92054.41;;;13.18;61.48
39613;BME280;25303;48.896;13.342;2023-04-25T13:00:17;92044.47;;;13.22;60.86
39613;BME280;25303;48.896;13.342;2023-04-25T13:03:02;92047.63;;;13.11;60.05
39613;BME280;25303;48.896;13.342;2023-04-25T13:05:46;92049.16;;;12.98;60.01
39613;BME280;25303;48.896;13.342;2023-04-25T13:08:29;92058.16;;;12.74;59.48
39613;BME280;25303;48.896;13.342;2023-04-25T13:11:13;92053.00;;;12.45;59.59
39613;BME280;25303;48.896;13.342;2023-04-25T13:13:57;92051.31;;;12.31;59.33
39613;BME280;25303;48.896;13.342;2023-04-25T13:16:40;92041.25;;;12.14;59.42
39613;BME280;25303;48.896;13.342;2023-04-25T13:19:24;92047.13;;;12.30;60.63
39613;BME280;25303;48.896;13.342;2023-04-25T13:22:07;92044.94;;;12.55;59.51
39613;BME280;25303;48.896;13.342;2023-04-25T13:24:50;92054.16;;;12.71;59.15
39613;BME280;25303;48.896;13.342;2023-04-25T13:27:34;92050.25;;;12.54;57.30
39613;BME280;25303;48.896;13.342;2023-04-25T13:30:18;92060.44;;;12.34;56.57
39613;BME280;25303;48.896;13.342;2023-04-25T13:33:00;92063.41;;;12.09;57.30
39613;BME280;25303;48.896;13.342;2023-04-25T13:35:47;92059.69;;;11.96;57.57
39613;BME280;25303;48.896;13.342;2023-04-25T13:38:35;92067.00;;;11.93;57.74
39613;BME280;25303;48.896;13.342;2023-04-25T13:41:18;92062.94;;;11.98;57.86
39613;BME280;25303;48.896;13.342;2023-04-25T13:44:01;92056.97;;;11.98;56.64
39613;BME280;25303;48.896;13.342;2023-04-25T13:46:44;92059.63;;;12.05;56.06
39613;BME280;25303;48.896;13.342;2023-04-25T13:49:28;92062.00;;;12.06;56.55
39613;BME280;25303;48.896;13.342;2023-04-25T13:52:13;92070.91;;;12.04;56.16
39613;BME280;25303;48.896;13.342;2023-04-25T13:54:56;92058.41;;;11.85;55.53
39613;BME280;25303;48.896;13.342;2023-04-25T13:57:39;92067.44;;;11.75;55.54
39613;BME280;25303;48.896;13.342;2023-04-25T14:00:22;92071.13;;;11.87;55.67
39613;BME280;25303;48.896;13.342;2023-04-25T14:03:06;92068.78;;;11.92;55.57
39613;BME280;25303;48.896;13.342;2023-04-25T14:05:50;92079.28;;;11.91;55.32
39613;BME280;25303;48.896;13.342;2023-04-25T14:08:34;92080.50;;;11.73;54.39
39613;BME280;25303;48.896;13.342;2023-04-25T14:11:17;92083.31;;;11.57;52.35
39613;BME280;25303;48.896;13.342;2023-04-25T14:14:00;92076.28;;;11.50;52.93
39613;BME280;25303;48.896;13.342;2023-04-25T14:16:43;92080.50;;;11.73;53.05
39613;BME280;25303;48.896;13.342;2023-04-25T14:19:26;92085.28;;;12.13;51.16
39613;BME280;25303;48.896;13.342;2023-04-25T14:22:10;92078.22;;;12.72;52.29
39613;BME280;25303;48.896;13.342;2023-04-25T14:24:54;92089.66;;;12.91;50.63
39613;BME280;25303;48.896;13.342;2023-04-25T14:27:40;92090.03;;;12.88;50.36
39613;BME280;25303;48.896;13.342;2023-04-25T14:30:23;92088.13;;;12.75;50.02
39613;BME280;25303;48.896;13.342;2023-04-25T14:33:06;92092.56;;;12.53;50.59
39613;BME280;25303;48.896;13.342;2023-04-25T14:35:49;92098.53;;;12.31;50.41
39613;BME280;25303;48.896;13.342;2023-04-25T14:38:32;92099.53;;;12.09;49.93
39613;BME280;25303;48.896;13.342;2023-04-25T14:41:17;92105.56;;;11.79;49.85
39613;BME280;25303;48.896;13.342;2023-04-25T14:43:59;92108.00;;;11.66;51.15